36.8°F
Current conditions from King Hill
Updated every 5 minutes
 
  Saturday November 22, 2014

Station Historical Data
Daily Summary for May 25, 2010 Units:  English    Metric   Both
« Previous Day
Next Day »
Daily Weekly Monthly Yearly Custom
  High: Low: Average:
Temperature: 87.1 °F 61.7 °F 74.2 °F
Dew Point: 68.6 °F 56.7 °F 62.1 °F
Humidity: 88% 44% 68%
Wind Speed: 5.0mph 0.0mph 2mph
Wind Gust: 11.0mph - -
Wind- - WSW
Pressure: 30.18 in 29.93 in -
Precipitation: 0.00 in    
Historical Graphs
 
 
Tabular Data for May 25, 2010
Time Temperature Dew Point Pressure Wind Wind Speed Wind Gust Humidity Daily Rainfall
00:01 63.0 °F 58.4 °F 30.14 in Calm     85% 0.00 in
00:06 63.1 °F 58.8 °F 30.14 in Calm   1.0 mph 86% 0.00 in
00:11 63.2 °F 58.9 °F 30.14 in Calm   1.0 mph 86% 0.00 in
00:16 63.1 °F 58.8 °F 30.14 in Calm     86% 0.00 in
00:21 63.0 °F 59.1 °F 30.13 in Calm     87% 0.00 in
00:26 62.8 °F 58.9 °F 30.13 in Calm   1.0 mph 87% 0.00 in
00:31 62.8 °F 59.2 °F 30.13 in Calm   1.0 mph 88% 0.00 in
00:36 63.0 °F 59.1 °F 30.13 in Calm     87% 0.00 in
00:41 62.9 °F 59.0 °F 30.13 in Calm     87% 0.00 in
00:46 62.9 °F 59.0 °F 30.13 in Calm     87% 0.00 in
00:51 62.8 °F 58.9 °F 30.13 in Calm     87% 0.00 in
00:56 62.6 °F 58.7 °F 30.13 in Calm     87% 0.00 in
01:01 62.6 °F 58.7 °F 30.14 in Calm     87% 0.00 in
01:06 62.6 °F 58.4 °F 30.14 in Calm     86% 0.00 in
01:11 62.7 °F 58.1 °F 30.13 in Calm     85% 0.00 in
01:16 62.7 °F 57.8 °F 30.13 in Calm     84% 0.00 in
01:21 62.7 °F 57.5 °F 30.13 in Calm     83% 0.00 in
01:26 62.6 °F 57.4 °F 30.13 in Calm     83% 0.00 in
01:31 62.5 °F 57.3 °F 30.13 in Calm     83% 0.00 in
01:36 62.3 °F 57.1 °F 30.13 in Calm   1.0 mph 83% 0.00 in
01:41 62.0 °F 57.1 °F 30.13 in Calm   1.0 mph 84% 0.00 in
01:46 61.8 °F 56.9 °F 30.13 in Calm   1.0 mph 84% 0.00 in
01:51 61.8 °F 56.9 °F 30.13 in Calm   1.0 mph 84% 0.00 in
01:56 62.0 °F 57.1 °F 30.13 in Calm   1.0 mph 84% 0.00 in
02:01 62.1 °F 56.9 °F 30.13 in Calm   1.0 mph 83% 0.00 in
02:06 62.3 °F 56.7 °F 30.13 in Calm   1.0 mph 82% 0.00 in
02:11 63.2 °F 56.9 °F 30.13 in SSW 2.0 mph 7.0 mph 80% 0.00 in
02:16 64.3 °F 57.3 °F 30.13 in SSW 1.0 mph 7.0 mph 78% 0.00 in
02:21 64.8 °F 57.4 °F 30.14 in SSW 1.0 mph 6.0 mph 77% 0.00 in
02:26 65.3 °F 57.5 °F 30.13 in SSW 2.0 mph 6.0 mph 76% 0.00 in
02:31 65.6 °F 57.5 °F 30.13 in SSW 2.0 mph 6.0 mph 75% 0.00 in
02:36 65.6 °F 57.5 °F 30.13 in SSW 3.0 mph 6.0 mph 75% 0.00 in
02:41 65.6 °F 57.8 °F 30.13 in SSW 3.0 mph 6.0 mph 76% 0.00 in
02:46 65.4 °F 57.6 °F 30.14 in SSW 2.0 mph 6.0 mph 76% 0.00 in
02:51 65.2 °F 57.8 °F 30.14 in SSW 4.0 mph 6.0 mph 77% 0.00 in
02:56 65.2 °F 58.2 °F 30.14 in SSW 3.0 mph 5.0 mph 78% 0.00 in
03:01 64.9 °F 57.9 °F 30.15 in SSW 2.0 mph 5.0 mph 78% 0.00 in
03:06 64.7 °F 58.0 °F 30.15 in SSW 3.0 mph 5.0 mph 79% 0.00 in
03:11 64.6 °F 57.9 °F 30.15 in SSW 3.0 mph 5.0 mph 79% 0.00 in
03:16 64.4 °F 58.1 °F 30.15 in SSW 2.0 mph 5.0 mph 80% 0.00 in
03:21 64.2 °F 57.9 °F 30.16 in SSW 1.0 mph 5.0 mph 80% 0.00 in
03:26 64.0 °F 57.7 °F 30.16 in SSW 1.0 mph 4.0 mph 80% 0.00 in
03:31 63.8 °F 57.2 °F 30.16 in SSW 1.0 mph 5.0 mph 79% 0.00 in
03:37 63.9 °F 57.3 °F 30.16 in SSW 3.0 mph 5.0 mph 79% 0.00 in
03:42 64.1 °F 57.5 °F 30.17 in SSW 2.0 mph 5.0 mph 79% 0.00 in
03:46 64.1 °F 57.5 °F 30.17 in Calm   5.0 mph 79% 0.00 in
03:57 63.3 °F 57.0 °F 30.18 in Calm   1.0 mph 80% 0.00 in
04:01 62.7 °F 56.8 °F 30.18 in SSW 1.0 mph 3.0 mph 81% 0.00 in
04:07 62.3 °F 56.7 °F 30.18 in SSW 1.0 mph 3.0 mph 82% 0.00 in
04:12 61.9 °F 56.7 °F 30.17 in SSW 1.0 mph 3.0 mph 83% 0.00 in
04:17 61.7 °F 56.8 °F 30.17 in SSW 2.0 mph 4.0 mph 84% 0.00 in
04:21 62.0 °F 57.1 °F 30.17 in Calm   4.0 mph 84% 0.00 in
04:26 62.1 °F 57.2 °F 30.17 in SSW 1.0 mph 4.0 mph 84% 0.00 in
04:32 62.2 °F 57.3 °F 30.17 in SSW 2.0 mph 4.0 mph 84% 0.00 in
04:37 62.6 °F 58.0 °F 30.17 in SSW 2.0 mph 6.0 mph 85% 0.00 in
04:42 63.3 °F 58.7 °F 30.17 in SSW 4.0 mph 7.0 mph 85% 0.00 in
04:46 64.1 °F 58.8 °F 30.17 in SSW 3.0 mph 7.0 mph 83% 0.00 in
04:52 64.3 °F 58.7 °F 30.16 in SSW 4.0 mph 8.0 mph 82% 0.00 in
04:57 64.4 °F 58.8 °F 30.16 in SSW 5.0 mph 8.0 mph 82% 0.00 in
05:02 64.5 °F 58.9 °F 30.16 in SSW 3.0 mph 8.0 mph 82% 0.00 in
05:07 64.5 °F 58.9 °F 30.16 in SSW 3.0 mph 7.0 mph 82% 0.00 in
05:11 64.4 °F 58.8 °F 30.16 in SSW 3.0 mph 7.0 mph 82% 0.00 in
05:17 64.1 °F 58.5 °F 30.15 in SSW 4.0 mph 7.0 mph 82% 0.00 in
05:22 64.0 °F 58.4 °F 30.15 in SSW 2.0 mph 7.0 mph 82% 0.00 in
05:27 64.0 °F 58.7 °F 30.15 in SSW 2.0 mph 6.0 mph 83% 0.00 in
05:31 64.0 °F 58.7 °F 30.16 in SSW 3.0 mph 6.0 mph 83% 0.00 in
05:36 64.0 °F 58.7 °F 30.17 in Calm   6.0 mph 83% 0.00 in
05:42 64.0 °F 58.4 °F 30.17 in SSW 1.0 mph 4.0 mph 82% 0.00 in
05:47 63.9 °F 58.6 °F 30.17 in SSW 2.0 mph 4.0 mph 83% 0.00 in
05:52 63.8 °F 58.5 °F 30.17 in Calm   4.0 mph 83% 0.00 in
05:56 63.7 °F 58.4 °F 30.18 in Calm   1.0 mph 83% 0.00 in
06:01 63.5 °F 58.6 °F 30.18 in Calm   1.0 mph 84% 0.00 in
06:07 63.2 °F 58.3 °F 30.17 in Calm   2.0 mph 84% 0.00 in
06:12 63.0 °F 58.7 °F 30.17 in SSW 3.0 mph 6.0 mph 86% 0.00 in
06:17 63.6 °F 59.0 °F 30.17 in SW 3.0 mph 7.0 mph 85% 0.00 in
06:21 64.1 °F 59.2 °F 30.17 in SSW 2.0 mph 7.0 mph 84% 0.00 in
06:26 64.5 °F 59.2 °F 30.18 in SW 4.0 mph 5.0 mph 83% 0.00 in
06:32 64.8 °F 59.5 °F 30.17 in WSW 1.0 mph 5.0 mph 83% 0.00 in
06:37 65.0 °F 59.7 °F 30.17 in SW 2.0 mph 5.0 mph 83% 0.00 in
06:41 65.2 °F 59.9 °F 30.17 in SW 2.0 mph 6.0 mph 83% 0.00 in
06:46 65.6 °F 60.0 °F 30.17 in SW 3.0 mph 6.0 mph 82% 0.00 in
06:52 65.8 °F 60.2 °F 30.16 in SSW 4.0 mph 8.0 mph 82% 0.00 in
06:57 65.9 °F 59.9 °F 30.16 in SW 1.0 mph 8.0 mph 81% 0.00 in
07:01 66.1 °F 60.1 °F 30.16 in SSW 3.0 mph 8.0 mph 81% 0.00 in
07:06 66.3 °F 60.0 °F 30.16 in SSW 5.0 mph 8.0 mph 80% 0.00 in
07:12 66.6 °F 60.2 °F 30.15 in SW 3.0 mph 8.0 mph 80% 0.00 in
07:17 66.9 °F 60.5 °F 30.16 in SSW 2.0 mph 6.0 mph 80% 0.00 in
07:22 67.1 °F 60.4 °F 30.16 in SSW 1.0 mph 7.0 mph 79% 0.00 in
07:26 67.4 °F 61.0 °F 30.16 in WSW 1.0 mph 7.0 mph 80% 0.00 in
07:32 67.6 °F 60.9 °F 30.16 in SW 2.0 mph 7.0 mph 79% 0.00 in
07:37 67.9 °F 61.5 °F 30.16 in Calm   7.0 mph 80% 0.00 in
07:42 68.1 °F 61.3 °F 30.16 in SW 1.0 mph 6.0 mph 79% 0.00 in
07:46 68.4 °F 61.3 °F 30.16 in SW 2.0 mph 7.0 mph 78% 0.00 in
07:52 68.8 °F 62.0 °F 30.16 in Calm   7.0 mph 79% 0.00 in
07:57 69.3 °F 62.2 °F 30.17 in WSW 1.0 mph 7.0 mph 78% 0.00 in
08:02 69.7 °F 62.2 °F 30.17 in Calm   4.0 mph 77% 0.00 in
08:07 70.4 °F 62.9 °F 30.17 in Calm   3.0 mph 77% 0.00 in
08:11 71.0 °F 62.7 °F 30.17 in Calm   1.0 mph 75% 0.00 in
08:17 71.7 °F 63.7 °F 30.17 in Calm   1.0 mph 76% 0.00 in
08:22 72.0 °F 63.3 °F 30.18 in Calm   1.0 mph 74% 0.00 in
08:27 72.4 °F 63.7 °F 30.17 in Calm   1.0 mph 74% 0.00 in
08:31 72.8 °F 63.7 °F 30.17 in Calm   1.0 mph 73% 0.00 in
08:37 73.1 °F 64.3 °F 30.17 in Calm   2.0 mph 74% 0.00 in
08:47 73.7 °F 63.7 °F 30.17 in Calm   3.0 mph 71% 0.00 in
08:52 74.1 °F 63.7 °F 30.17 in SSW 1.0 mph 4.0 mph 70% 0.00 in
08:56 74.2 °F 64.6 °F 30.17 in Calm   4.0 mph 72% 0.00 in
09:01 74.4 °F 63.6 °F 30.17 in Calm   3.0 mph 69% 0.00 in
09:07 74.4 °F 63.6 °F 30.17 in Calm   3.0 mph 69% 0.00 in
09:12 74.8 °F 64.8 °F 30.17 in Calm   3.0 mph 71% 0.00 in
09:17 74.9 °F 63.2 °F 30.17 in Calm   3.0 mph 67% 0.00 in
09:21 75.3 °F 63.6 °F 30.17 in Calm   3.0 mph 67% 0.00 in
09:27 75.6 °F 64.7 °F 30.17 in Calm   2.0 mph 69% 0.00 in
09:32 76.1 °F 63.9 °F 30.17 in NW 1.0 mph 3.0 mph 66% 0.00 in
09:37 76.3 °F 64.5 °F 30.17 in Calm   3.0 mph 67% 0.00 in
09:41 76.6 °F 62.2 °F 30.17 in NW 2.0 mph 9.0 mph 61% 0.00 in
09:47 76.4 °F 62.0 °F 30.17 in WNW 2.0 mph 9.0 mph 61% 0.00 in
09:52 76.5 °F 62.5 °F 30.17 in Calm   6.0 mph 62% 0.00 in
09:57 76.7 °F 61.3 °F 30.17 in WNW 2.0 mph 6.0 mph 59% 0.00 in
10:01 76.9 °F 62.4 °F 30.16 in Calm   6.0 mph 61% 0.00 in
10:06 77.2 °F 61.3 °F 30.16 in NW 2.0 mph 6.0 mph 58% 0.00 in
10:12 77.2 °F 59.3 °F 30.16 in West 1.0 mph 6.0 mph 54% 0.00 in
10:17 77.6 °F 61.2 °F 30.16 in Calm   5.0 mph 57% 0.00 in
10:22 78.3 °F 63.3 °F 30.16 in Calm   1.0 mph 60% 0.00 in
10:26 78.8 °F 60.8 °F 30.16 in Calm   1.0 mph 54% 0.00 in
10:32 79.1 °F 61.6 °F 30.15 in Calm   2.0 mph 55% 0.00 in
10:37 79.1 °F 61.1 °F 30.15 in Calm   2.0 mph 54% 0.00 in
10:42 79.3 °F 62.3 °F 30.16 in West 1.0 mph 7.0 mph 56% 0.00 in
10:46 79.1 °F 62.1 °F 30.15 in Calm   7.0 mph 56% 0.00 in
10:52 79.3 °F 63.3 °F 30.15 in West 2.0 mph 4.0 mph 58% 0.00 in
10:57 79.6 °F 62.5 °F 30.14 in West 1.0 mph 4.0 mph 56% 0.00 in
11:01 79.7 °F 61.6 °F 30.14 in WNW 3.0 mph 5.0 mph 54% 0.00 in
11:07 79.7 °F 59.4 °F 30.14 in WNW 2.0 mph 5.0 mph 50% 0.00 in
11:12 79.6 °F 61.5 °F 30.14 in NW 1.0 mph 5.0 mph 54% 0.00 in
11:17 80.3 °F 63.2 °F 30.13 in Calm   5.0 mph 56% 0.00 in
11:21 80.8 °F 64.2 °F 30.14 in Calm   6.0 mph 57% 0.00 in
11:27 81.2 °F 62.5 °F 30.13 in WNW 2.0 mph 7.0 mph 53% 0.00 in
11:32 80.6 °F 61.9 °F 30.13 in WNW 1.0 mph 7.0 mph 53% 0.00 in
11:37 80.5 °F 62.9 °F 30.13 in WNW 2.0 mph 7.0 mph 55% 0.00 in
11:41 80.7 °F 63.1 °F 30.13 in Calm   7.0 mph 55% 0.00 in
11:46 80.8 °F 63.1 °F 30.13 in Calm   3.0 mph 55% 0.00 in
11:52 81.0 °F 64.9 °F 30.12 in WNW 1.0 mph 6.0 mph 58% 0.00 in
11:56 81.3 °F 64.1 °F 30.12 in Calm   6.0 mph 56% 0.00 in
12:01 81.5 °F 65.8 °F 30.12 in West 1.0 mph 5.0 mph 59% 0.00 in
12:07 81.4 °F 63.2 °F 30.12 in Calm   5.0 mph 54% 0.00 in
12:12 81.5 °F 63.8 °F 30.12 in NNW 2.0 mph 6.0 mph 55% 0.00 in
12:17 81.3 °F 63.6 °F 30.12 in West 2.0 mph 7.0 mph 55% 0.00 in
12:21 81.4 °F 62.7 °F 30.11 in Calm   7.0 mph 53% 0.00 in
12:27 81.8 °F 65.6 °F 30.11 in West 4.0 mph 7.0 mph 58% 0.00 in
12:32 81.8 °F 63.6 °F 30.10 in WNW 1.0 mph 7.0 mph 54% 0.00 in
12:37 81.8 °F 61.9 °F 30.10 in Calm   7.0 mph 51% 0.00 in
12:41 82.2 °F 63.4 °F 30.10 in SW 2.0 mph 6.0 mph 53% 0.00 in
12:47 82.3 °F 64.5 °F 30.10 in WNW 5.0 mph 8.0 mph 55% 0.00 in
12:52 82.3 °F 63.5 °F 30.09 in NW 3.0 mph 8.0 mph 53% 0.00 in
12:57 82.5 °F 63.1 °F 30.09 in WNW 2.0 mph 8.0 mph 52% 0.00 in
13:01 82.5 °F 64.2 °F 30.09 in NW 2.0 mph 8.0 mph 54% 0.00 in
13:07 82.8 °F 62.9 °F 30.09 in WNW 5.0 mph 10.0 mph 51% 0.00 in
13:12 82.7 °F 65.4 °F 30.09 in WNW 2.0 mph 10.0 mph 56% 0.00 in
13:17 82.9 °F 62.9 °F 30.08 in WNW 3.0 mph 8.0 mph 51% 0.00 in
13:21 82.9 °F 61.8 °F 30.08 in WNW 1.0 mph 8.0 mph 49% 0.00 in
13:27 83.6 °F 64.1 °F 30.08 in Calm   7.0 mph 52% 0.00 in
13:32 83.8 °F 62.0 °F 30.08 in WNW 5.0 mph 10.0 mph 48% 0.00 in
13:37 83.7 °F 62.5 °F 30.08 in West 3.0 mph 10.0 mph 49% 0.00 in
13:41 83.8 °F 64.3 °F 30.08 in Calm   10.0 mph 52% 0.00 in
13:46 84.3 °F 65.9 °F 30.08 in West 4.0 mph 7.0 mph 54% 0.00 in
13:52 84.4 °F 62.6 °F 30.08 in NW 4.0 mph 8.0 mph 48% 0.00 in
13:57 83.9 °F 65.0 °F 30.08 in WNW 4.0 mph 11.0 mph 53% 0.00 in
14:02 84.0 °F 64.5 °F 30.08 in WNW 2.0 mph 11.0 mph 52% 0.00 in
14:07 84.2 °F 64.7 °F 30.07 in West 2.0 mph 9.0 mph 52% 0.00 in
14:11 84.4 °F 62.0 °F 30.07 in Calm   8.0 mph 47% 0.00 in
14:17 85.0 °F 62.5 °F 30.07 in NW 3.0 mph 10.0 mph 47% 0.00 in
14:22 85.1 °F 62.6 °F 30.06 in NW 1.0 mph 10.0 mph 47% 0.00 in
14:27 85.2 °F 65.6 °F 30.06 in WNW 1.0 mph 8.0 mph 52% 0.00 in
14:32 85.5 °F 65.3 °F 30.06 in WNW 2.0 mph 10.0 mph 51% 0.00 in
14:37 85.7 °F 62.6 °F 30.05 in NW 2.0 mph 10.0 mph 46% 0.00 in
14:42 85.9 °F 64.0 °F 30.05 in NNW 1.0 mph 8.0 mph 48% 0.00 in
14:46 86.4 °F 61.9 °F 30.06 in NW 4.0 mph 9.0 mph 44% 0.00 in
14:52 86.1 °F 63.5 °F 30.05 in Calm   9.0 mph 47% 0.00 in
14:57 86.4 °F 63.8 °F 30.05 in WSW 1.0 mph 8.0 mph 47% 0.00 in
15:01 86.5 °F 66.8 °F 30.05 in NW 4.0 mph 8.0 mph 52% 0.00 in
15:07 86.0 °F 62.8 °F 30.04 in WNW 1.0 mph 8.0 mph 46% 0.00 in
15:12 86.1 °F 64.1 °F 30.04 in NW 1.0 mph 9.0 mph 48% 0.00 in
15:17 86.6 °F 64.0 °F 30.04 in NW 1.0 mph 9.0 mph 47% 0.00 in
15:21 86.8 °F 64.8 °F 30.04 in NW 1.0 mph 6.0 mph 48% 0.00 in
15:27 86.6 °F 62.8 °F 30.04 in West 2.0 mph 9.0 mph 45% 0.00 in
15:32 86.5 °F 65.7 °F 30.03 in NW 1.0 mph 9.0 mph 50% 0.00 in
15:37 86.8 °F 66.0 °F 30.03 in NNW 2.0 mph 7.0 mph 50% 0.00 in
15:41 86.9 °F 66.1 °F 30.03 in NW 2.0 mph 8.0 mph 50% 0.00 in
15:47 87.0 °F 63.8 °F 30.03 in Calm   8.0 mph 46% 0.00 in
15:52 86.8 °F 65.4 °F 30.03 in NW 1.0 mph 5.0 mph 49% 0.00 in
15:57 87.1 °F 66.8 °F 30.03 in NW 2.0 mph 10.0 mph 51% 0.00 in
16:01 87.1 °F 63.8 °F 30.02 in WSW 1.0 mph 10.0 mph 46% 0.00 in
16:07 87.0 °F 66.7 °F 30.03 in North 1.0 mph 8.0 mph 51% 0.00 in
16:12 87.0 °F 66.1 °F 30.02 in NE 1.0 mph 8.0 mph 50% 0.00 in
16:17 87.1 °F 66.8 °F 30.02 in NNW 3.0 mph 9.0 mph 51% 0.00 in
16:21 87.1 °F 66.8 °F 30.02 in NNW 1.0 mph 9.0 mph 51% 0.00 in
16:27 87.1 °F 66.8 °F 30.02 in NW 1.0 mph 8.0 mph 51% 0.00 in
16:32 87.0 °F 65.0 °F 30.02 in NNE 1.0 mph 11.0 mph 48% 0.00 in
16:41 86.7 °F 64.7 °F 30.01 in NE 3.0 mph 8.0 mph 48% 0.00 in
16:47 86.4 °F 65.0 °F 30.02 in NNE 1.0 mph 7.0 mph 49% 0.00 in
16:52 86.5 °F 66.3 °F 30.02 in Calm   6.0 mph 51% 0.00 in
16:57 86.7 °F 65.3 °F 30.02 in North 1.0 mph 6.0 mph 49% 0.00 in
17:01 86.7 °F 65.9 °F 30.02 in NNW 1.0 mph 5.0 mph 50% 0.00 in
17:07 86.5 °F 65.1 °F 30.01 in NW 3.0 mph 10.0 mph 49% 0.00 in
17:12 86.5 °F 65.1 °F 30.01 in NNE 1.0 mph 10.0 mph 49% 0.00 in
17:17 86.6 °F 65.8 °F 30.01 in NNW 1.0 mph 6.0 mph 50% 0.00 in
17:21 86.5 °F 67.4 °F 30.01 in North 1.0 mph 6.0 mph 53% 0.00 in
17:27 86.8 °F 68.2 °F 30.01 in NW 1.0 mph 6.0 mph 54% 0.00 in
17:32 86.7 °F 65.9 °F 30.01 in Calm   6.0 mph 50% 0.00 in
17:37 86.6 °F 66.9 °F 30.01 in Calm   6.0 mph 52% 0.00 in
17:41 86.6 °F 65.8 °F 30.01 in North 1.0 mph 5.0 mph 50% 0.00 in
17:47 86.6 °F 68.0 °F 30.01 in Calm   5.0 mph 54% 0.00 in
17:52 86.6 °F 66.3 °F 30.00 in NNW 1.0 mph 4.0 mph 51% 0.00 in
17:57 86.1 °F 65.9 °F 29.99 in NNW 1.0 mph 5.0 mph 51% 0.00 in
18:02 85.8 °F 67.3 °F 29.99 in Calm   5.0 mph 54% 0.00 in
18:06 85.7 °F 66.6 °F 29.99 in Calm   3.0 mph 53% 0.00 in
18:12 85.6 °F 66.0 °F 29.99 in Calm   6.0 mph 52% 0.00 in
18:17 85.2 °F 65.6 °F 29.98 in Calm   6.0 mph 52% 0.00 in
18:22 85.1 °F 65.5 °F 29.98 in Calm   5.0 mph 52% 0.00 in
18:27 85.1 °F 65.0 °F 29.98 in Calm   4.0 mph 51% 0.00 in
18:31 85.3 °F 66.8 °F 29.98 in Calm   4.0 mph 54% 0.00 in
18:37 85.5 °F 65.3 °F 29.98 in Calm   1.0 mph 51% 0.00 in
18:42 85.5 °F 66.4 °F 29.98 in Calm   1.0 mph 53% 0.00 in
18:47 85.1 °F 66.6 °F 29.98 in Calm   3.0 mph 54% 0.00 in
18:51 84.4 °F 66.0 °F 29.98 in NW 1.0 mph 4.0 mph 54% 0.00 in
18:57 83.9 °F 65.0 °F 29.98 in Calm   4.0 mph 53% 0.00 in
19:02 83.7 °F 65.3 °F 29.98 in Calm   1.0 mph 54% 0.00 in
19:07 83.5 °F 66.2 °F 29.98 in Calm   1.0 mph 56% 0.00 in
19:12 83.5 °F 67.2 °F 29.98 in Calm   1.0 mph 58% 0.00 in
19:16 83.4 °F 68.6 °F 29.98 in Calm   1.0 mph 61% 0.00 in
19:22 82.9 °F 67.6 °F 29.98 in Calm   1.0 mph 60% 0.00 in
19:27 82.4 °F 67.1 °F 29.98 in Calm   1.0 mph 60% 0.00 in
19:32 81.5 °F 67.7 °F 29.97 in Calm   1.0 mph 63% 0.00 in
19:36 80.7 °F 66.5 °F 29.97 in Calm   1.0 mph 62% 0.00 in
19:42 80.0 °F 66.3 °F 29.97 in Calm   1.0 mph 63% 0.00 in
19:47 79.0 °F 67.1 °F 29.97 in Calm   1.0 mph 67% 0.00 in
19:52 77.8 °F 65.1 °F 29.97 in Calm   1.0 mph 65% 0.00 in
19:57 77.1 °F 66.2 °F 29.97 in Calm     69% 0.00 in
20:01 76.2 °F 65.3 °F 29.97 in Calm     69% 0.00 in
20:07 75.5 °F 65.4 °F 29.97 in Calm     71% 0.00 in
20:12 74.5 °F 64.5 °F 29.97 in Calm     71% 0.00 in
20:17 73.7 °F 64.1 °F 29.97 in Calm     72% 0.00 in
20:21 73.4 °F 63.4 °F 29.97 in Calm     71% 0.00 in
20:27 73.1 °F 63.1 °F 29.97 in Calm     71% 0.00 in
20:32 72.8 °F 62.9 °F 29.97 in Calm     71% 0.00 in
20:37 72.4 °F 62.9 °F 29.97 in Calm     72% 0.00 in
20:41 72.0 °F 62.9 °F 29.97 in Calm     73% 0.00 in
20:47 71.5 °F 62.8 °F 29.97 in Calm     74% 0.00 in
20:52 71.1 °F 62.8 °F 29.97 in Calm     75% 0.00 in
20:57 70.6 °F 62.7 °F 29.98 in Calm     76% 0.00 in
21:01 70.2 °F 62.7 °F 29.98 in Calm     77% 0.00 in
21:07 69.7 °F 62.5 °F 29.98 in Calm     78% 0.00 in
21:12 69.4 °F 62.6 °F 29.98 in Calm     79% 0.00 in
21:17 69.0 °F 62.6 °F 29.97 in Calm     80% 0.00 in
21:21 68.6 °F 62.5 °F 29.97 in Calm     81% 0.00 in
21:27 68.4 °F 62.3 °F 29.97 in Calm     81% 0.00 in
21:32 68.2 °F 62.2 °F 29.98 in Calm     81% 0.00 in
21:37 68.0 °F 62.0 °F 29.98 in Calm     81% 0.00 in
21:41 68.0 °F 62.0 °F 29.98 in Calm     81% 0.00 in
21:47 68.5 °F 61.7 °F 29.98 in Calm     79% 0.00 in
21:52 68.8 °F 62.0 °F 29.97 in Calm     79% 0.00 in
21:57 69.0 °F 61.9 °F 29.97 in Calm     78% 0.00 in
22:02 69.4 °F 61.9 °F 29.97 in Calm   1.0 mph 77% 0.00 in
22:07 69.7 °F 61.8 °F 29.97 in Calm   1.0 mph 76% 0.00 in
22:12 70.1 °F 62.2 °F 29.97 in Calm   1.0 mph 76% 0.00 in
22:16 70.5 °F 61.8 °F 29.96 in Calm   1.0 mph 74% 0.00 in
22:22 70.6 °F 61.9 °F 29.96 in Calm   3.0 mph 74% 0.00 in
22:27 70.7 °F 62.0 °F 29.96 in Calm   3.0 mph 74% 0.00 in
22:32 70.7 °F 62.0 °F 29.96 in Calm   3.0 mph 74% 0.00 in
22:36 70.6 °F 62.3 °F 29.96 in WSW 1.0 mph 3.0 mph 75% 0.00 in
22:42 70.7 °F 61.6 °F 29.95 in SW 1.0 mph 3.0 mph 73% 0.00 in
22:47 71.0 °F 62.3 °F 29.95 in Calm   4.0 mph 74% 0.00 in
22:52 71.1 °F 62.0 °F 29.95 in Calm   4.0 mph 73% 0.00 in
22:56 71.0 °F 61.9 °F 29.94 in Calm   1.0 mph 73% 0.00 in
23:01 71.0 °F 61.9 °F 29.94 in WSW 1.0 mph 4.0 mph 73% 0.00 in
23:07 71.3 °F 61.4 °F 29.94 in SW 1.0 mph 5.0 mph 71% 0.00 in
23:12 71.8 °F 61.9 °F 29.94 in WSW 1.0 mph 7.0 mph 71% 0.00 in
23:17 72.1 °F 62.2 °F 29.94 in WSW 1.0 mph 7.0 mph 71% 0.00 in
23:21 72.4 °F 62.5 °F 29.93 in WSW 1.0 mph 6.0 mph 71% 0.00 in
23:27 72.6 °F 62.3 °F 29.93 in WSW 1.0 mph 6.0 mph 70% 0.00 in
23:32 72.9 °F 62.6 °F 29.93 in Calm   4.0 mph 70% 0.00 in
23:37 73.0 °F 62.6 °F 29.93 in WSW 2.0 mph 5.0 mph 70% 0.00 in
23:42 73.3 °F 62.9 °F 29.93 in WSW 1.0 mph 5.0 mph 70% 0.00 in
23:47 73.5 °F 63.1 °F 29.93 in West 3.0 mph 9.0 mph 70% 0.00 in
23:52 73.7 °F 63.3 °F 29.93 in Calm   9.0 mph 70% 0.00 in
23:57 73.6 °F 63.2 °F 29.93 in Calm   5.0 mph 70% 0.00 in
Westford Weather
Compliments of Weather Underground

 
 
Current Radar Loop:

Copyright © WestfordWeather.net 2007-2014. All rights reserved.